Contact Us:
Email: info@sawbill.com
Phone: (218)663-7150
Fax: (218)663-7980
Mail: 4620 Sawbill Trail
Box 2129
Tofte, MN 55615


Powered by
Movable Type 3.15
 
Sawbill Weather History Archives: November 2008
Current Sawbill Weather History | « October 2008 | December 2008 »


Date

High
Temperature

Low
Temperature

Barometric
Pressure

Relative
Humidity 7AM

9 AM
Temperature

Moisture

Snow

11/30/08 20 9 29.68 77% 10 .02" .5"
11/29/08 23 16 29.71 79% 16 0
11/28/08 27 21 29.77 81% 21 Trace Trace
11/27/08 26 21 29.74 92% 25 .13" 1.5"
11/26/08 24 12 29.74 94% 21 0
11/25/08 23 11 29.97 77% 15 0
11/24/08 27 14 30.03 84% 15 .05" .5"
11/23/08 29 21 29.83 87% 22 0
11/22/08 28 16 29.97 88% 28 Trace
11/21/08 16 1 30.27 91% 1 0
11/20/08 14 5 30.36 61% 5 0
11/19/08 25 7 30.36 71% 7 .05" .5"
11/18/08 24 14 29.80 90% 24 Trace Trace
11/17/08 20 14 30.39 61% 14 Trace Trace
11/16/08 23 15 30.21 69% 16 Trace Trace
11/15/08 27 18 29.85 74% 18 Trace Trace
11/14/08 34 27 29.97 78% 27 Trace Trace
11/13/08 36 32 29.56 98% 33 .012" .5"
11/12/08 35 30 29.35 98% 33 .016" .5"
11/11/08 30 10 29.97 98% 30 Trace Trace
11/10/08 26 10 30.21 72% 11 0
11/9/08 24 20 30.03 85% 20 .04" Trace
11/8/08 30 20 29.80 81% 21 .08" Trace
11/7/08 46 30 29.62 88% 30 .05" Trace
11/6/08 53 44 29.65 98% 44 .29"
11/5/08 53 49 29.77 98% 53 1.03"
11/4/08 60 47 29.74 98% 50 .51"
11/3/08 54 34 28.85 90% 48 .2"
11/2/08 40 33 30.03 98% 34 0
11/1/08 43 28 30.09 95% 38 Trace
 


Home I Trip Planning I Rentals and Outfitting I Reservations I Campgrounds I Sawbill Store I Sawbill News I Contact

© 1997 - 2017, Sawbill Canoe Outfitters, Inc. I Privacy Policy